Time;durP1;ratioP1;P1;durP2;ratioP2;P2;SDS_P1;SDS_P2;PMS_P1;PMS_P2;Temp;Humidity;BMP_temperature;BMP_pressure;BME280_temperature;BME280_humidity;BME280_pressure;Samples;Min_cycle;Max_cycle;Signal;HPM_P1;HPM_P2
2023/08/17 00:01:52;;;;;;;5.85;3.08;;;;;;;;;;5005559;28;20033;-68
2023/08/17 00:04:18;;;;;;;5.32;2.75;;;;;;;;;;5007067;28;20120;-67
2023/08/17 00:06:46;;;;;;;7.07;3.30;;;;;;;;;;5007066;28;20080;-68
2023/08/17 00:09:13;;;;;;;7.32;3.17;;;;;;;;;;5007183;28;20034;-68
2023/08/17 00:11:39;;;;;;;8.65;2.90;;;;;;;;;;5007194;28;20032;-68
2023/08/17 00:14:05;;;;;;;8.55;2.92;;;;;;;;;;5006802;28;20037;-68
2023/08/17 00:16:32;;;;;;;7.57;2.92;;;;;;;;;;5006529;28;20690;-67
2023/08/17 00:18:58;;;;;;;6.13;2.70;;;;;;;;;;5007336;28;20037;-68
2023/08/17 00:21:24;;;;;;;7.40;3.45;;;;;;;;;;5005402;28;20033;-68
2023/08/17 00:23:50;;;;;;;10.77;3.17;;;;;;;;;;5006439;28;20040;-68
2023/08/17 00:26:16;;;;;;;7.38;2.53;;;;;;;;;;5010267;28;20035;-68
2023/08/17 00:28:43;;;;;;;7.95;2.90;;;;;;;;;;5011599;28;20044;-68
2023/08/17 00:31:09;;;;;;;6.43;2.70;;;;;;;;;;5011198;28;20115;-68
2023/08/17 00:33:35;;;;;;;7.00;3.20;;;;;;;;;;5011757;28;20028;-68
2023/08/17 00:36:01;;;;;;;7.50;2.88;;;;;;;;;;5010729;28;20116;-68
2023/08/17 00:38:27;;;;;;;10.57;3.05;;;;;;;;;;5011444;28;20034;-68
2023/08/17 00:40:54;;;;;;;6.28;2.50;;;;;;;;;;5011903;28;20033;-68
2023/08/17 00:43:20;;;;;;;5.03;2.03;;;;;;;;;;5008099;28;20072;-68
2023/08/17 00:45:47;;;;;;;5.60;2.17;;;;;;;;;;5010920;28;20487;-68
2023/08/17 00:48:13;;;;;;;6.10;2.90;;;;;;;;;;5010254;28;20032;-68
2023/08/17 00:50:40;;;;;;;6.15;2.85;;;;;;;;;;5009906;28;20041;-68
2023/08/17 00:53:06;;;;;;;7.95;2.90;;;;;;;;;;5011005;28;20030;-67
2023/08/17 00:55:33;;;;;;;6.72;2.67;;;;;;;;;;5010075;28;20025;-68
2023/08/17 00:57:59;;;;;;;7.50;2.95;;;;;;;;;;5010811;28;20128;-68
2023/08/17 01:00:29;;;;;;;6.85;2.80;;;;;;;;;;5026227;28;20030;-68
2023/08/17 01:02:55;;;;;;;8.35;2.45;;;;;;;;;;5009508;28;20064;-68
2023/08/17 01:05:22;;;;;;;8.00;2.70;;;;;;;;;;5010128;28;20226;-68
2023/08/17 01:07:48;;;;;;;9.02;2.72;;;;;;;;;;5010630;28;20039;-68
2023/08/17 01:10:14;;;;;;;9.88;3.40;;;;;;;;;;5023192;28;20479;-68
2023/08/17 01:12:59;;;;;;;10.25;3.13;;;;;;;;;;5010146;28;20036;-68
2023/08/17 01:15:29;;;;;;;6.90;3.00;;;;;;;;;;5011137;28;20033;-68
2023/08/17 01:18:00;;;;;;;5.75;3.03;;;;;;;;;;5025357;28;20077;-68
2023/08/17 01:20:26;;;;;;;5.30;2.40;;;;;;;;;;5009612;28;20063;-68
2023/08/17 01:22:57;;;;;;;6.10;2.85;;;;;;;;;;5010375;28;20114;-68
2023/08/17 01:25:23;;;;;;;7.03;2.58;;;;;;;;;;5009642;28;20087;-68
2023/08/17 01:27:49;;;;;;;8.75;3.30;;;;;;;;;;5010154;28;20052;-68
2023/08/17 01:30:17;;;;;;;7.78;3.28;;;;;;;;;;5009999;28;20076;-68
2023/08/17 01:32:43;;;;;;;4.90;2.72;;;;;;;;;;5014068;28;20379;-68
2023/08/17 01:35:16;;;;;;;5.78;2.90;;;;;;;;;;5006851;28;20051;-68
2023/08/17 01:37:43;;;;;;;6.28;3.03;;;;;;;;;;5008737;28;20191;-68
2023/08/17 01:40:10;;;;;;;5.95;2.55;;;;;;;;;;5011414;28;20032;-68
2023/08/17 01:42:37;;;;;;;8.65;2.75;;;;;;;;;;5009739;28;20140;-68
2023/08/17 01:45:03;;;;;;;7.93;3.15;;;;;;;;;;5008687;28;20033;-68
2023/08/17 01:47:30;;;;;;;6.65;3.53;;;;;;;;;;4998256;28;20080;-68
2023/08/17 01:49:59;;;;;;;6.30;2.90;;;;;;;;;;5009651;28;20732;-68
2023/08/17 01:52:27;;;;;;;7.00;3.00;;;;;;;;;;5009271;28;20025;-68
2023/08/17 01:54:53;;;;;;;7.65;3.10;;;;;;;;;;5025300;28;20361;-68
2023/08/17 01:57:19;;;;;;;10.38;2.95;;;;;;;;;;5008402;28;20025;-68
2023/08/17 01:59:45;;;;;;;7.18;3.22;;;;;;;;;;5006487;28;20086;-68
2023/08/17 02:02:14;;;;;;;6.22;2.65;;;;;;;;;;5007418;28;20034;-68
2023/08/17 02:04:40;;;;;;;5.95;2.97;;;;;;;;;;5008619;28;20040;-68
2023/08/17 02:07:06;;;;;;;6.85;2.53;;;;;;;;;;5008628;28;20057;-68
2023/08/17 02:09:32;;;;;;;7.72;2.88;;;;;;;;;;5007372;28;20117;-68
2023/08/17 02:11:58;;;;;;;7.65;2.75;;;;;;;;;;5010240;28;20122;-68
2023/08/17 02:14:24;;;;;;;6.30;2.83;;;;;;;;;;5008972;28;20069;-68
2023/08/17 02:16:50;;;;;;;8.65;2.67;;;;;;;;;;5009171;28;20034;-68
2023/08/17 02:19:16;;;;;;;6.47;2.60;;;;;;;;;;5008504;28;20412;-67
2023/08/17 02:21:42;;;;;;;8.98;2.47;;;;;;;;;;5008013;28;21479;-68
2023/08/17 02:24:08;;;;;;;5.90;2.83;;;;;;;;;;5008739;28;21669;-68
2023/08/17 02:26:34;;;;;;;5.88;2.55;;;;;;;;;;5009506;28;20033;-68
2023/08/17 02:29:00;;;;;;;6.55;2.53;;;;;;;;;;5008736;28;20120;-68
2023/08/17 02:31:27;;;;;;;4.78;2.50;;;;;;;;;;5008607;28;20068;-68
2023/08/17 02:33:53;;;;;;;6.68;2.90;;;;;;;;;;5008621;28;20143;-68
2023/08/17 02:36:19;;;;;;;8.18;2.58;;;;;;;;;;5009270;28;20120;-68
2023/08/17 02:38:45;;;;;;;5.95;2.65;;;;;;;;;;5008334;28;20038;-67
2023/08/17 02:41:11;;;;;;;4.82;2.80;;;;;;;;;;5008498;28;20062;-68
2023/08/17 02:43:37;;;;;;;12.80;3.28;;;;;;;;;;5007852;28;20037;-68
2023/08/17 02:46:04;;;;;;;8.02;3.08;;;;;;;;;;5006617;28;21227;-68
2023/08/17 02:48:30;;;;;;;6.25;2.55;;;;;;;;;;5005971;28;20404;-67
2023/08/17 02:50:56;;;;;;;7.28;3.28;;;;;;;;;;5008102;28;20033;-67
2023/08/17 02:53:22;;;;;;;7.32;2.90;;;;;;;;;;5007242;28;20032;-68
2023/08/17 02:55:48;;;;;;;10.77;2.75;;;;;;;;;;5008201;28;21683;-68
2023/08/17 02:58:15;;;;;;;5.90;2.55;;;;;;;;;;5008481;28;21084;-68
2023/08/17 03:00:41;;;;;;;6.72;2.90;;;;;;;;;;5007379;28;20041;-68
2023/08/17 03:03:07;;;;;;;8.65;2.70;;;;;;;;;;5007074;28;20037;-68
2023/08/17 03:05:34;;;;;;;7.88;2.97;;;;;;;;;;5007111;28;20033;-68
2023/08/17 03:08:00;;;;;;;8.82;3.22;;;;;;;;;;5008321;28;20103;-68
2023/08/17 03:10:26;;;;;;;8.55;3.00;;;;;;;;;;5008231;28;20040;-68
2023/08/17 03:12:52;;;;;;;8.25;2.85;;;;;;;;;;5008166;28;20032;-68
2023/08/17 03:15:18;;;;;;;8.45;2.97;;;;;;;;;;5008393;28;20075;-68
2023/08/17 03:17:44;;;;;;;7.38;2.67;;;;;;;;;;5007969;28;20048;-68
2023/08/17 03:20:10;;;;;;;9.70;3.80;;;;;;;;;;5007541;28;20551;-67
2023/08/17 03:22:36;;;;;;;9.65;3.20;;;;;;;;;;5022666;28;20036;-68
2023/08/17 03:25:02;;;;;;;5.93;2.83;;;;;;;;;;5006517;28;20024;-68
2023/08/17 03:27:29;;;;;;;5.22;2.47;;;;;;;;;;5007697;28;20177;-67
2023/08/17 03:29:55;;;;;;;5.95;2.67;;;;;;;;;;5007279;28;20038;-68
2023/08/17 03:32:21;;;;;;;6.28;2.63;;;;;;;;;;5007447;28;20021;-68
2023/08/17 03:34:47;;;;;;;6.53;2.85;;;;;;;;;;5007414;28;20028;-68
2023/08/17 03:37:13;;;;;;;6.32;2.58;;;;;;;;;;5006317;28;20033;-68
2023/08/17 03:39:39;;;;;;;11.35;2.78;;;;;;;;;;5006356;28;20056;-68
2023/08/17 03:42:05;;;;;;;5.85;2.47;;;;;;;;;;5007310;28;20061;-68
2023/08/17 03:44:31;;;;;;;5.68;2.47;;;;;;;;;;5008779;28;20120;-68
2023/08/17 03:46:57;;;;;;;8.55;2.58;;;;;;;;;;5008393;28;20198;-68
2023/08/17 03:49:23;;;;;;;6.55;2.38;;;;;;;;;;5007572;28;20488;-68
2023/08/17 03:51:49;;;;;;;5.85;2.22;;;;;;;;;;5007763;28;20091;-68
2023/08/17 03:54:15;;;;;;;6.18;1.98;;;;;;;;;;5007514;28;20055;-68
2023/08/17 03:56:41;;;;;;;7.07;3.00;;;;;;;;;;5008478;28;20068;-67
2023/08/17 03:59:07;;;;;;;5.85;2.30;;;;;;;;;;5007626;28;20121;-68
2023/08/17 04:01:33;;;;;;;5.72;2.17;;;;;;;;;;5010810;28;20064;-68
2023/08/17 04:03:59;;;;;;;4.47;2.20;;;;;;;;;;5009002;28;20037;-68
2023/08/17 04:06:26;;;;;;;5.68;2.40;;;;;;;;;;5008588;28;20250;-68
2023/08/17 04:08:52;;;;;;;7.50;2.70;;;;;;;;;;5009012;28;20063;-68
2023/08/17 04:11:18;;;;;;;7.05;2.03;;;;;;;;;;5010379;28;20032;-68
2023/08/17 04:13:44;;;;;;;5.50;1.90;;;;;;;;;;5009203;28;20154;-67
2023/08/17 04:16:10;;;;;;;8.10;2.50;;;;;;;;;;5010293;28;20063;-68
2023/08/17 04:18:36;;;;;;;8.02;2.88;;;;;;;;;;5010214;28;20081;-68
2023/08/17 04:21:02;;;;;;;7.28;2.70;;;;;;;;;;5011500;28;20046;-68
2023/08/17 04:23:28;;;;;;;5.63;2.28;;;;;;;;;;5011300;28;20056;-68
2023/08/17 04:25:55;;;;;;;9.63;2.38;;;;;;;;;;5010857;28;20037;-68
2023/08/17 04:28:21;;;;;;;7.82;2.30;;;;;;;;;;5010487;28;20033;-68
2023/08/17 04:30:47;;;;;;;8.00;2.08;;;;;;;;;;5009803;28;20041;-68
2023/08/17 04:33:13;;;;;;;6.47;2.15;;;;;;;;;;5010568;28;20021;-68
2023/08/17 04:35:39;;;;;;;3.85;1.98;;;;;;;;;;5008697;28;20039;-68
2023/08/17 04:38:05;;;;;;;6.65;2.33;;;;;;;;;;5008483;28;20124;-68
2023/08/17 04:40:32;;;;;;;6.70;1.98;;;;;;;;;;5009762;28;20029;-68
2023/08/17 04:42:58;;;;;;;4.50;2.00;;;;;;;;;;5010934;28;20029;-68
2023/08/17 04:45:24;;;;;;;6.72;1.98;;;;;;;;;;5010201;28;21002;-68
2023/08/17 04:47:50;;;;;;;7.85;2.72;;;;;;;;;;5009774;28;21902;-68
2023/08/17 04:50:16;;;;;;;5.88;2.20;;;;;;;;;;5010439;28;20574;-68
2023/08/17 04:52:46;;;;;;;9.40;2.58;;;;;;;;;;5009538;28;20026;-67
2023/08/17 04:55:14;;;;;;;7.25;2.50;;;;;;;;;;5010575;28;20048;-68
2023/08/17 04:57:40;;;;;;;5.65;2.17;;;;;;;;;;5009026;28;20024;-68
2023/08/17 05:00:09;;;;;;;6.68;2.45;;;;;;;;;;5008393;28;20045;-68
2023/08/17 05:02:36;;;;;;;6.65;2.72;;;;;;;;;;5009379;28;20040;-68
2023/08/17 05:05:03;;;;;;;6.15;2.50;;;;;;;;;;5010359;28;20029;-68
2023/08/17 05:07:29;;;;;;;4.80;2.33;;;;;;;;;;5008967;28;20040;-68
2023/08/17 05:09:55;;;;;;;8.45;2.65;;;;;;;;;;5009988;28;20037;-68
2023/08/17 05:12:21;;;;;;;8.15;2.30;;;;;;;;;;5009778;28;20040;-67
2023/08/17 05:14:48;;;;;;;7.28;2.20;;;;;;;;;;5009397;28;20033;-68
2023/08/17 05:17:14;;;;;;;6.95;2.05;;;;;;;;;;5008925;28;20033;-68
2023/08/17 05:19:41;;;;;;;5.32;2.30;;;;;;;;;;5009486;28;20041;-68
2023/08/17 05:22:10;;;;;;;5.35;2.08;;;;;;;;;;5009790;28;20910;-68
2023/08/17 05:24:36;;;;;;;6.15;2.05;;;;;;;;;;5013835;28;20076;-68
2023/08/17 05:27:03;;;;;;;8.23;1.80;;;;;;;;;;5009202;28;20033;-68
2023/08/17 05:29:29;;;;;;;5.75;2.22;;;;;;;;;;5009429;28;20088;-67
2023/08/17 05:31:55;;;;;;;6.22;2.00;;;;;;;;;;5008651;28;20041;-67
2023/08/17 05:34:21;;;;;;;10.18;2.05;;;;;;;;;;5007617;28;21194;-68
2023/08/17 05:36:47;;;;;;;5.90;2.25;;;;;;;;;;5009266;28;20069;-68
2023/08/17 05:39:13;;;;;;;7.25;1.80;;;;;;;;;;5007890;28;20037;-68
2023/08/17 05:41:39;;;;;;;4.75;1.60;;;;;;;;;;5008710;28;20032;-68
2023/08/17 05:44:06;;;;;;;6.50;2.25;;;;;;;;;;5008967;28;20780;-67
2023/08/17 05:46:33;;;;;;;6.95;1.65;;;;;;;;;;5009009;28;20871;-67
2023/08/17 05:48:59;;;;;;;6.03;1.85;;;;;;;;;;5007632;28;20059;-67
2023/08/17 05:51:25;;;;;;;4.03;1.65;;;;;;;;;;5009035;28;20123;-67
2023/08/17 05:53:51;;;;;;;9.57;2.03;;;;;;;;;;5008940;28;20032;-67
2023/08/17 05:56:17;;;;;;;8.05;2.30;;;;;;;;;;5008050;28;20037;-67
2023/08/17 05:58:43;;;;;;;5.75;1.60;;;;;;;;;;5008638;28;20044;-67
2023/08/17 06:01:10;;;;;;;5.07;1.80;;;;;;;;;;5009410;28;20032;-67
2023/08/17 06:03:37;;;;;;;6.47;1.65;;;;;;;;;;5009058;28;20078;-67
2023/08/17 06:06:06;;;;;;;6.55;2.20;;;;;;;;;;5008636;28;20036;-67
2023/08/17 06:08:33;;;;;;;8.15;2.13;;;;;;;;;;5008728;28;21340;-67
2023/08/17 06:10:59;;;;;;;4.97;1.73;;;;;;;;;;5007079;28;20059;-67
2023/08/17 06:13:25;;;;;;;7.15;1.80;;;;;;;;;;5006521;28;20139;-67
2023/08/17 06:15:51;;;;;;;9.02;1.90;;;;;;;;;;5007281;28;20120;-67
2023/08/17 06:18:17;;;;;;;7.75;1.77;;;;;;;;;;5007149;28;20051;-67
2023/08/17 06:20:46;;;;;;;4.20;1.38;;;;;;;;;;5006728;28;20219;-67
2023/08/17 06:23:12;;;;;;;9.40;2.45;;;;;;;;;;5006706;28;20397;-67
2023/08/17 06:25:38;;;;;;;5.38;1.90;;;;;;;;;;5008187;28;20029;-67
2023/08/17 06:28:06;;;;;;;4.13;1.58;;;;;;;;;;5008611;28;20142;-67
2023/08/17 06:30:35;;;;;;;3.75;1.52;;;;;;;;;;5008487;28;20037;-67
2023/08/17 06:33:01;;;;;;;5.07;1.65;;;;;;;;;;5008324;28;20029;-67
2023/08/17 06:35:27;;;;;;;5.57;1.80;;;;;;;;;;5007914;28;20140;-67
2023/08/17 06:37:56;;;;;;;6.97;1.73;;;;;;;;;;5007891;28;20049;-67
2023/08/17 06:40:22;;;;;;;5.32;1.55;;;;;;;;;;5005826;28;20170;-67
2023/08/17 06:42:48;;;;;;;5.13;1.70;;;;;;;;;;5007545;28;20041;-67
2023/08/17 06:45:18;;;;;;;6.95;2.00;;;;;;;;;;5007024;28;20132;-67
2023/08/17 06:47:45;;;;;;;4.55;1.50;;;;;;;;;;5007980;28;21767;-67
2023/08/17 06:50:11;;;;;;;4.95;1.67;;;;;;;;;;5005681;28;20034;-67
2023/08/17 06:52:37;;;;;;;5.07;1.33;;;;;;;;;;5007202;28;20055;-67
2023/08/17 06:55:03;;;;;;;5.00;1.88;;;;;;;;;;5006037;28;20037;-67
2023/08/17 06:57:29;;;;;;;8.15;1.73;;;;;;;;;;5007268;28;20036;-67
2023/08/17 06:59:55;;;;;;;4.07;1.60;;;;;;;;;;5008108;28;20043;-67
2023/08/17 07:02:22;;;;;;;5.32;1.40;;;;;;;;;;5006819;28;20048;-67
2023/08/17 07:04:48;;;;;;;5.25;1.45;;;;;;;;;;5003081;28;20037;-67
2023/08/17 07:07:14;;;;;;;7.18;2.00;;;;;;;;;;5006763;28;20121;-67
2023/08/17 07:09:41;;;;;;;7.00;1.60;;;;;;;;;;5004336;28;20060;-67
2023/08/17 07:12:07;;;;;;;7.35;1.20;;;;;;;;;;5007247;28;20056;-67
2023/08/17 07:14:33;;;;;;;5.95;1.30;;;;;;;;;;5006807;28;21755;-67
2023/08/17 07:17:04;;;;;;;4.88;1.50;;;;;;;;;;5010889;28;20040;-67
2023/08/17 07:19:30;;;;;;;9.30;1.50;;;;;;;;;;5002841;28;20044;-67
2023/08/17 07:21:56;;;;;;;8.27;1.65;;;;;;;;;;5007114;28;21791;-67
2023/08/17 07:24:23;;;;;;;4.15;1.30;;;;;;;;;;5005526;28;20041;-68
2023/08/17 07:26:49;;;;;;;2.30;0.95;;;;;;;;;;5006817;28;20033;-67
2023/08/17 07:29:15;;;;;;;7.70;1.70;;;;;;;;;;5006164;28;20037;-67
2023/08/17 07:31:41;;;;;;;9.77;1.65;;;;;;;;;;5006355;28;21791;-67
2023/08/17 07:34:07;;;;;;;4.35;0.90;;;;;;;;;;5005129;28;20041;-67
2023/08/17 07:36:34;;;;;;;4.60;1.00;;;;;;;;;;5006144;28;20035;-67
2023/08/17 07:39:04;;;;;;;5.70;1.50;;;;;;;;;;5006948;28;20029;-67
2023/08/17 07:41:30;;;;;;;4.68;1.33;;;;;;;;;;5007145;28;20531;-67
2023/08/17 07:43:56;;;;;;;6.20;1.30;;;;;;;;;;5007107;28;20079;-67
2023/08/17 07:46:22;;;;;;;5.13;1.75;;;;;;;;;;5005825;28;20060;-67
2023/08/17 07:48:48;;;;;;;4.47;1.45;;;;;;;;;;5005223;28;20045;-67
2023/08/17 07:51:14;;;;;;;3.63;1.13;;;;;;;;;;5007217;28;20040;-67
2023/08/17 07:53:41;;;;;;;7.93;1.80;;;;;;;;;;5009400;28;20076;-68
2023/08/17 07:56:07;;;;;;;4.22;1.10;;;;;;;;;;5004820;28;20530;-67
2023/08/17 07:58:33;;;;;;;4.90;1.40;;;;;;;;;;5007336;28;20063;-67
2023/08/17 08:00:59;;;;;;;4.55;1.13;;;;;;;;;;5006697;28;21908;-68
2023/08/17 08:03:25;;;;;;;8.48;1.40;;;;;;;;;;5007151;28;20068;-67
2023/08/17 08:05:51;;;;;;;4.88;1.10;;;;;;;;;;5005851;28;20033;-67
2023/08/17 08:08:17;;;;;;;3.55;1.10;;;;;;;;;;5005787;28;20518;-67
2023/08/17 08:10:44;;;;;;;2.33;1.00;;;;;;;;;;5007272;28;20040;-68
2023/08/17 08:13:10;;;;;;;6.28;1.20;;;;;;;;;;5007092;28;20038;-68
2023/08/17 08:15:36;;;;;;;3.63;1.17;;;;;;;;;;5005950;28;20037;-67
2023/08/17 08:18:02;;;;;;;5.72;1.35;;;;;;;;;;5004757;28;20041;-67
2023/08/17 08:20:28;;;;;;;10.82;1.73;;;;;;;;;;5005043;28;20264;-67
2023/08/17 08:22:54;;;;;;;6.18;1.35;;;;;;;;;;5005856;28;20063;-67
2023/08/17 08:25:20;;;;;;;4.15;1.10;;;;;;;;;;5004808;28;20149;-68
2023/08/17 08:27:46;;;;;;;5.15;1.35;;;;;;;;;;5005780;28;20471;-68
2023/08/17 08:30:12;;;;;;;5.40;1.27;;;;;;;;;;5006893;28;21592;-68
2023/08/17 08:32:38;;;;;;;6.00;1.27;;;;;;;;;;5006747;28;20037;-68
2023/08/17 08:35:05;;;;;;;4.32;1.17;;;;;;;;;;5008061;28;20040;-68
2023/08/17 08:37:31;;;;;;;3.78;1.10;;;;;;;;;;5006702;28;20072;-68
2023/08/17 08:39:57;;;;;;;3.92;0.90;;;;;;;;;;5006488;28;20099;-68
2023/08/17 08:42:23;;;;;;;2.60;0.80;;;;;;;;;;5008253;28;20029;-68
2023/08/17 08:44:50;;;;;;;3.75;1.23;;;;;;;;;;5023731;28;20033;-68
2023/08/17 08:47:17;;;;;;;3.72;0.90;;;;;;;;;;5010763;28;20071;-67
2023/08/17 08:49:55;;;;;;;5.15;1.17;;;;;;;;;;5011398;28;20119;-68
2023/08/17 08:52:23;;;;;;;6.72;1.15;;;;;;;;;;5010546;28;20923;-68
2023/08/17 08:54:53;;;;;;;4.97;1.58;;;;;;;;;;5011078;28;20029;-67
2023/08/17 08:57:19;;;;;;;4.90;1.20;;;;;;;;;;5010723;28;20040;-67
2023/08/17 08:59:46;;;;;;;3.33;1.05;;;;;;;;;;5010015;28;20056;-67
2023/08/17 09:02:16;;;;;;;3.60;1.05;;;;;;;;;;5010300;28;20040;-68
2023/08/17 09:04:45;;;;;;;3.65;0.85;;;;;;;;;;5010792;28;20120;-68
2023/08/17 09:07:15;;;;;;;6.28;1.58;;;;;;;;;;5010505;28;20037;-67
2023/08/17 09:09:41;;;;;;;6.88;1.30;;;;;;;;;;5008736;28;20456;-68
2023/08/17 09:12:09;;;;;;;5.82;1.92;;;;;;;;;;5011895;28;20037;-67
2023/08/17 09:14:37;;;;;;;4.53;1.10;;;;;;;;;;5010816;28;20140;-68
2023/08/17 09:17:03;;;;;;;3.92;1.00;;;;;;;;;;5011121;28;20025;-68
2023/08/17 09:19:29;;;;;;;5.63;1.35;;;;;;;;;;5010581;28;20081;-68
2023/08/17 09:21:55;;;;;;;2.17;0.95;;;;;;;;;;5024419;28;20049;-68
2023/08/17 09:24:21;;;;;;;4.40;1.20;;;;;;;;;;5009732;28;21079;-68
2023/08/17 09:26:48;;;;;;;2.92;0.80;;;;;;;;;;5009377;28;20400;-68
2023/08/17 09:29:18;;;;;;;5.50;1.13;;;;;;;;;;5009330;28;20033;-68
2023/08/17 09:31:44;;;;;;;3.28;1.25;;;;;;;;;;5008625;28;20120;-68
2023/08/17 09:34:11;;;;;;;3.20;1.02;;;;;;;;;;5009242;28;20037;-68
2023/08/17 09:36:37;;;;;;;6.03;1.20;;;;;;;;;;5009066;28;20422;-67
2023/08/17 09:39:03;;;;;;;5.15;1.63;;;;;;;;;;5008845;28;20037;-68
2023/08/17 09:41:29;;;;;;;5.07;1.40;;;;;;;;;;5008493;28;20028;-68
2023/08/17 09:43:55;;;;;;;4.30;1.00;;;;;;;;;;5009398;28;20047;-68
2023/08/17 09:46:23;;;;;;;5.80;1.50;;;;;;;;;;5008592;28;20523;-68
2023/08/17 09:48:49;;;;;;;3.35;1.10;;;;;;;;;;5008622;28;20045;-68
2023/08/17 09:51:16;;;;;;;11.63;1.85;;;;;;;;;;5008188;28;20041;-68
2023/08/17 09:53:42;;;;;;;5.43;1.10;;;;;;;;;;5009372;28;20526;-68
2023/08/17 09:56:10;;;;;;;4.05;1.17;;;;;;;;;;5023074;28;20071;-68
2023/08/17 09:58:37;;;;;;;4.70;1.48;;;;;;;;;;5008363;28;20148;-68
2023/08/17 10:01:06;;;;;;;5.40;1.25;;;;;;;;;;5009400;28;20037;-68
2023/08/17 10:03:34;;;;;;;3.55;1.05;;;;;;;;;;5009566;28;20068;-67
2023/08/17 10:06:05;;;;;;;3.13;0.93;;;;;;;;;;5009605;28;20043;-68
2023/08/17 10:08:32;;;;;;;5.88;1.00;;;;;;;;;;5008825;28;20037;-68
2023/08/17 10:10:58;;;;;;;4.32;1.00;;;;;;;;;;5009250;28;20064;-68
2023/08/17 10:13:31;;;;;;;8.90;1.70;;;;;;;;;;5008866;28;20043;-68
2023/08/17 10:16:00;;;;;;;7.10;1.33;;;;;;;;;;5009722;28;20036;-68
2023/08/17 10:18:36;;;;;;;4.15;1.20;;;;;;;;;;5009163;28;20509;-68
2023/08/17 10:21:04;;;;;;;5.10;1.33;;;;;;;;;;5008553;28;20029;-68
2023/08/17 10:23:30;;;;;;;4.30;1.05;;;;;;;;;;5007307;28;20037;-68
2023/08/17 10:25:57;;;;;;;4.35;0.95;;;;;;;;;;5007013;28;20044;-68
2023/08/17 10:28:23;;;;;;;5.32;1.27;;;;;;;;;;5008011;28;20124;-68
2023/08/17 10:30:49;;;;;;;6.32;1.50;;;;;;;;;;5007832;28;20080;-68
2023/08/17 10:33:16;;;;;;;3.67;1.00;;;;;;;;;;5007151;28;20041;-68
2023/08/17 10:35:42;;;;;;;6.15;1.42;;;;;;;;;;5007999;28;20057;-67
2023/08/17 10:38:09;;;;;;;5.72;1.10;;;;;;;;;;5007820;28;20037;-68
2023/08/17 10:40:36;;;;;;;4.18;1.25;;;;;;;;;;5008628;28;20037;-68
2023/08/17 10:43:02;;;;;;;6.50;1.67;;;;;;;;;;5009262;28;20799;-67
2023/08/17 10:45:30;;;;;;;7.43;1.33;;;;;;;;;;5008808;28;20039;-67
2023/08/17 10:48:08;;;;;;;7.28;1.73;;;;;;;;;;5009161;28;20064;-67
2023/08/17 10:50:35;;;;;;;5.18;1.48;;;;;;;;;;5007952;28;20025;-68
2023/08/17 10:53:05;;;;;;;6.75;1.30;;;;;;;;;;5009865;28;20029;-67
2023/08/17 10:55:41;;;;;;;5.10;1.10;;;;;;;;;;5009041;28;20380;-68
2023/08/17 10:58:11;;;;;;;6.95;1.30;;;;;;;;;;5009036;28;20036;-68
2023/08/17 11:00:44;;;;;;;7.13;1.20;;;;;;;;;;5008808;28;20029;-68
2023/08/17 11:03:11;;;;;;;7.13;2.05;;;;;;;;;;5008053;28;20032;-68
2023/08/17 11:05:43;;;;;;;7.47;1.42;;;;;;;;;;5008431;28;20037;-68
2023/08/17 11:08:20;;;;;;;4.43;1.10;;;;;;;;;;5008754;28;20439;-67
2023/08/17 11:11:05;;;;;;;6.72;1.48;;;;;;;;;;5007252;28;20056;-68
2023/08/17 11:13:32;;;;;;;6.70;1.20;;;;;;;;;;5008517;28;20033;-68
2023/08/17 11:15:59;;;;;;;4.68;1.10;;;;;;;;;;5008106;28;20388;-68
2023/08/17 11:18:25;;;;;;;6.20;1.30;;;;;;;;;;5014476;28;20049;-68
2023/08/17 11:20:52;;;;;;;6.45;1.60;;;;;;;;;;5027918;28;20119;-67
2023/08/17 11:23:18;;;;;;;8.68;1.77;;;;;;;;;;5028500;28;20116;-68
2023/08/17 11:25:44;;;;;;;6.22;1.85;;;;;;;;;;5026404;28;20036;-68
2023/08/17 11:28:11;;;;;;;4.38;1.25;;;;;;;;;;5026803;28;20037;-68
2023/08/17 11:30:38;;;;;;;3.50;1.23;;;;;;;;;;5028140;28;20119;-68
2023/08/17 11:33:05;;;;;;;5.00;1.38;;;;;;;;;;5025755;28;21779;-68
2023/08/17 11:35:31;;;;;;;4.68;1.50;;;;;;;;;;5026855;28;20036;-67
2023/08/17 11:37:57;;;;;;;4.55;1.23;;;;;;;;;;5027562;28;20033;-68
2023/08/17 11:40:24;;;;;;;9.00;1.77;;;;;;;;;;5027175;28;20047;-68
2023/08/17 11:42:50;;;;;;;5.85;1.27;;;;;;;;;;5028161;28;20521;-68
2023/08/17 11:45:16;;;;;;;6.45;1.80;;;;;;;;;;5028482;28;20029;-68
2023/08/17 11:47:43;;;;;;;6.13;1.60;;;;;;;;;;5027413;28;20021;-68
2023/08/17 11:50:10;;;;;;;3.78;1.65;;;;;;;;;;5026951;28;21032;-68
2023/08/17 11:52:36;;;;;;;4.75;1.35;;;;;;;;;;5027915;28;20025;-68
2023/08/17 11:55:06;;;;;;;6.15;1.50;;;;;;;;;;5026240;28;20033;-68
2023/08/17 11:57:32;;;;;;;7.60;1.83;;;;;;;;;;5027833;28;20118;-68
2023/08/17 11:59:59;;;;;;;6.28;1.27;;;;;;;;;;5027225;28;20475;-68
2023/08/17 12:02:26;;;;;;;9.00;1.70;;;;;;;;;;5027905;28;20033;-68
2023/08/17 12:04:52;;;;;;;7.05;1.65;;;;;;;;;;5027319;28;20443;-68
2023/08/17 12:07:19;;;;;;;6.95;1.80;;;;;;;;;;5026733;28;20037;-68
2023/08/17 12:09:46;;;;;;;4.07;1.40;;;;;;;;;;5027863;28;20035;-68
2023/08/17 12:12:12;;;;;;;5.10;1.67;;;;;;;;;;5028164;28;20028;-68
2023/08/17 12:14:42;;;;;;;6.25;2.10;;;;;;;;;;5026863;28;20040;-68
2023/08/17 12:17:14;;;;;;;6.53;1.67;;;;;;;;;;5031276;28;20175;-68
2023/08/17 12:19:40;;;;;;;8.88;1.92;;;;;;;;;;5014009;28;21325;-68
2023/08/17 12:22:06;;;;;;;5.28;1.52;;;;;;;;;;4998902;28;20040;-68
2023/08/17 12:24:34;;;;;;;7.88;1.70;;;;;;;;;;5018793;28;20037;-68
2023/08/17 12:27:00;;;;;;;4.28;1.50;;;;;;;;;;5018116;28;20117;-68
2023/08/17 12:29:26;;;;;;;5.38;1.50;;;;;;;;;;5016739;28;20033;-68
2023/08/17 12:31:52;;;;;;;7.78;1.77;;;;;;;;;;5015501;28;20040;-68
2023/08/17 12:34:18;;;;;;;4.38;1.50;;;;;;;;;;5015774;28;20098;-68
2023/08/17 12:36:44;;;;;;;5.32;1.80;;;;;;;;;;5016158;28;20071;-68
2023/08/17 12:39:11;;;;;;;4.85;1.55;;;;;;;;;;5015586;28;20483;-67
2023/08/17 12:41:37;;;;;;;6.82;1.65;;;;;;;;;;5015795;28;20204;-68
2023/08/17 12:44:03;;;;;;;5.10;1.67;;;;;;;;;;5017348;28;20033;-68
2023/08/17 12:46:32;;;;;;;6.53;1.80;;;;;;;;;;5017709;28;20168;-68
2023/08/17 12:48:58;;;;;;;6.20;1.63;;;;;;;;;;5016974;28;20029;-68
2023/08/17 12:51:25;;;;;;;6.13;1.88;;;;;;;;;;5018273;28;20780;-68
2023/08/17 12:53:51;;;;;;;6.15;1.63;;;;;;;;;;5018122;28;21155;-68
2023/08/17 12:56:17;;;;;;;6.32;2.10;;;;;;;;;;5017418;28;20033;-68
2023/08/17 12:58:43;;;;;;;10.05;2.22;;;;;;;;;;5018091;28;20025;-68
2023/08/17 13:01:09;;;;;;;6.90;2.05;;;;;;;;;;5017044;28;20488;-69
2023/08/17 13:03:35;;;;;;;5.65;1.98;;;;;;;;;;5017469;28;20037;-68
2023/08/17 13:06:02;;;;;;;5.55;2.05;;;;;;;;;;5016964;28;20447;-68
2023/08/17 13:08:28;;;;;;;6.07;1.70;;;;;;;;;;5017062;28;20041;-68
2023/08/17 13:10:55;;;;;;;7.85;1.92;;;;;;;;;;5016970;28;21789;-68
2023/08/17 13:13:21;;;;;;;7.93;1.92;;;;;;;;;;5017819;28;20499;-67
2023/08/17 13:15:47;;;;;;;5.90;1.77;;;;;;;;;;5017292;28;20609;-68
2023/08/17 13:18:13;;;;;;;5.70;1.92;;;;;;;;;;5020661;28;20044;-68
2023/08/17 13:20:40;;;;;;;5.03;1.73;;;;;;;;;;5036043;28;20132;-68
2023/08/17 13:23:06;;;;;;;8.60;2.33;;;;;;;;;;5036654;28;20044;-68
2023/08/17 13:25:32;;;;;;;8.40;2.10;;;;;;;;;;5035987;28;20033;-68
2023/08/17 13:27:58;;;;;;;6.28;2.03;;;;;;;;;;5036547;28;20032;-68
2023/08/17 13:30:24;;;;;;;5.68;1.88;;;;;;;;;;5035956;28;20047;-68
2023/08/17 13:32:51;;;;;;;8.75;2.00;;;;;;;;;;5035275;28;20033;-68
2023/08/17 13:35:17;;;;;;;4.30;1.60;;;;;;;;;;5034651;28;20039;-68
2023/08/17 13:37:43;;;;;;;7.22;2.10;;;;;;;;;;5035692;28;22017;-68
2023/08/17 13:40:10;;;;;;;7.43;2.13;;;;;;;;;;5036392;28;20619;-68
2023/08/17 13:42:36;;;;;;;10.10;2.13;;;;;;;;;;5035970;28;20052;-68
2023/08/17 13:45:03;;;;;;;8.18;2.25;;;;;;;;;;5035496;28;20589;-68
2023/08/17 13:47:29;;;;;;;5.75;1.80;;;;;;;;;;5036353;28;20532;-67
2023/08/17 13:49:56;;;;;;;8.07;2.25;;;;;;;;;;5036429;28;20031;-68
2023/08/17 13:52:23;;;;;;;4.30;1.88;;;;;;;;;;5036078;28;21032;-68
2023/08/17 13:54:49;;;;;;;8.38;1.88;;;;;;;;;;5036845;28;20108;-68
2023/08/17 13:57:15;;;;;;;6.18;2.10;;;;;;;;;;5035793;28;20025;-68
2023/08/17 13:59:41;;;;;;;7.95;2.10;;;;;;;;;;5036899;28;20482;-68
2023/08/17 14:02:08;;;;;;;7.32;2.20;;;;;;;;;;5035673;28;20657;-68
2023/08/17 14:04:34;;;;;;;7.55;2.10;;;;;;;;;;5036051;28;20036;-68
2023/08/17 14:07:01;;;;;;;6.43;2.70;;;;;;;;;;5035848;28;20032;-68
2023/08/17 14:09:27;;;;;;;7.57;2.40;;;;;;;;;;5036457;28;20048;-68
2023/08/17 14:11:53;;;;;;;7.43;2.42;;;;;;;;;;5035869;28;20044;-68
2023/08/17 14:14:19;;;;;;;8.25;2.50;;;;;;;;;;5036257;28;20028;-68
2023/08/17 14:16:45;;;;;;;12.48;3.13;;;;;;;;;;5035399;28;20025;-68
2023/08/17 14:19:11;;;;;;;9.40;2.45;;;;;;;;;;5025032;28;20049;-68
2023/08/17 14:21:37;;;;;;;8.70;2.58;;;;;;;;;;5015860;28;21844;-68
2023/08/17 14:24:04;;;;;;;8.88;2.50;;;;;;;;;;5016170;28;20454;-68
2023/08/17 14:26:30;;;;;;;10.60;2.30;;;;;;;;;;5015839;28;21530;-68
2023/08/17 14:28:56;;;;;;;7.15;2.38;;;;;;;;;;5015559;28;21751;-68
2023/08/17 14:31:22;;;;;;;10.73;2.70;;;;;;;;;;5015477;28;20053;-68
2023/08/17 14:33:49;;;;;;;12.52;3.08;;;;;;;;;;5016277;28;20033;-68
2023/08/17 14:36:15;;;;;;;5.78;2.50;;;;;;;;;;5015483;28;20071;-68
2023/08/17 14:38:41;;;;;;;12.20;3.33;;;;;;;;;;5015626;28;20067;-68
2023/08/17 14:41:08;;;;;;;10.52;2.65;;;;;;;;;;5014886;28;20622;-68